sensor_id;sensor_type;location;lat;lon;timestamp;temperature;humidity
12874;DHT22;6505;51.114;13.128;2023-07-13T00:01:20;28.90;42.60
12874;DHT22;6505;51.114;13.128;2023-07-13T00:03:48;28.80;42.70
12874;DHT22;6505;51.114;13.128;2023-07-13T00:06:17;28.80;43.00
12874;DHT22;6505;51.114;13.128;2023-07-13T00:08:47;28.80;43.40
12874;DHT22;6505;51.114;13.128;2023-07-13T00:11:17;28.70;43.50
12874;DHT22;6505;51.114;13.128;2023-07-13T00:13:47;28.80;43.70
12874;DHT22;6505;51.114;13.128;2023-07-13T00:16:17;28.70;43.80
12874;DHT22;6505;51.114;13.128;2023-07-13T00:18:47;28.70;43.90
12874;DHT22;6505;51.114;13.128;2023-07-13T00:21:16;28.70;44.10
12874;DHT22;6505;51.114;13.128;2023-07-13T00:23:46;28.60;44.20
12874;DHT22;6505;51.114;13.128;2023-07-13T00:26:15;28.60;44.30
12874;DHT22;6505;51.114;13.128;2023-07-13T00:28:45;28.70;44.50
12874;DHT22;6505;51.114;13.128;2023-07-13T00:31:17;28.60;44.70
12874;DHT22;6505;51.114;13.128;2023-07-13T00:33:47;28.60;44.70
12874;DHT22;6505;51.114;13.128;2023-07-13T00:36:17;28.60;44.60
12874;DHT22;6505;51.114;13.128;2023-07-13T00:38:48;28.50;44.60
12874;DHT22;6505;51.114;13.128;2023-07-13T00:41:17;28.50;44.50
12874;DHT22;6505;51.114;13.128;2023-07-13T00:43:46;28.50;44.50
12874;DHT22;6505;51.114;13.128;2023-07-13T00:46:25;28.50;44.60
12874;DHT22;6505;51.114;13.128;2023-07-13T00:48:59;28.50;44.90
12874;DHT22;6505;51.114;13.128;2023-07-13T00:51:36;28.40;44.70
12874;DHT22;6505;51.114;13.128;2023-07-13T00:54:12;28.40;44.30
12874;DHT22;6505;51.114;13.128;2023-07-13T00:56:48;28.40;44.70
12874;DHT22;6505;51.114;13.128;2023-07-13T00:59:21;28.30;44.50
12874;DHT22;6505;51.114;13.128;2023-07-13T01:01:54;28.30;44.90
12874;DHT22;6505;51.114;13.128;2023-07-13T01:04:24;28.30;45.50
12874;DHT22;6505;51.114;13.128;2023-07-13T01:06:54;28.30;44.90
12874;DHT22;6505;51.114;13.128;2023-07-13T01:09:27;28.20;44.40
12874;DHT22;6505;51.114;13.128;2023-07-13T01:11:58;28.30;45.00
12874;DHT22;6505;51.114;13.128;2023-07-13T01:14:27;28.20;44.10
12874;DHT22;6505;51.114;13.128;2023-07-13T01:16:59;28.20;44.40
12874;DHT22;6505;51.114;13.128;2023-07-13T01:19:35;28.20;44.50
12874;DHT22;6505;51.114;13.128;2023-07-13T01:22:11;28.20;44.80
12874;DHT22;6505;51.114;13.128;2023-07-13T01:24:46;28.10;44.80
12874;DHT22;6505;51.114;13.128;2023-07-13T01:27:20;28.20;44.80
12874;DHT22;6505;51.114;13.128;2023-07-13T01:29:52;28.10;44.60
12874;DHT22;6505;51.114;13.128;2023-07-13T01:32:29;28.10;44.80
12874;DHT22;6505;51.114;13.128;2023-07-13T01:35:01;28.10;44.90
12874;DHT22;6505;51.114;13.128;2023-07-13T01:37:33;28.10;45.00
12874;DHT22;6505;51.114;13.128;2023-07-13T01:40:05;28.00;45.50
12874;DHT22;6505;51.114;13.128;2023-07-13T01:42:37;28.00;45.70
12874;DHT22;6505;51.114;13.128;2023-07-13T01:45:09;28.10;45.70
12874;DHT22;6505;51.114;13.128;2023-07-13T01:47:39;28.00;45.50
12874;DHT22;6505;51.114;13.128;2023-07-13T01:50:10;28.00;45.60
12874;DHT22;6505;51.114;13.128;2023-07-13T01:52:43;27.90;45.50
12874;DHT22;6505;51.114;13.128;2023-07-13T01:55:14;27.90;45.60
12874;DHT22;6505;51.114;13.128;2023-07-13T01:57:44;27.90;45.60
12874;DHT22;6505;51.114;13.128;2023-07-13T02:00:15;27.90;45.90
12874;DHT22;6505;51.114;13.128;2023-07-13T02:02:48;27.90;46.10
12874;DHT22;6505;51.114;13.128;2023-07-13T02:05:19;27.80;46.10
12874;DHT22;6505;51.114;13.128;2023-07-13T02:07:51;27.80;46.20
12874;DHT22;6505;51.114;13.128;2023-07-13T02:10:21;27.80;46.50
12874;DHT22;6505;51.114;13.128;2023-07-13T02:12:53;27.80;46.50
12874;DHT22;6505;51.114;13.128;2023-07-13T02:15:30;27.70;46.60
12874;DHT22;6505;51.114;13.128;2023-07-13T02:18:02;27.70;46.70
12874;DHT22;6505;51.114;13.128;2023-07-13T02:20:36;27.70;46.70
12874;DHT22;6505;51.114;13.128;2023-07-13T02:23:08;27.70;46.20
12874;DHT22;6505;51.114;13.128;2023-07-13T02:25:44;27.70;46.70
12874;DHT22;6505;51.114;13.128;2023-07-13T02:28:16;27.60;46.90
12874;DHT22;6505;51.114;13.128;2023-07-13T02:30:46;27.60;46.90
12874;DHT22;6505;51.114;13.128;2023-07-13T02:33:18;27.60;47.10
12874;DHT22;6505;51.114;13.128;2023-07-13T02:35:50;27.60;47.20
12874;DHT22;6505;51.114;13.128;2023-07-13T02:38:22;27.50;47.10
12874;DHT22;6505;51.114;13.128;2023-07-13T02:40:52;27.50;47.00
12874;DHT22;6505;51.114;13.128;2023-07-13T02:43:22;27.50;47.00
12874;DHT22;6505;51.114;13.128;2023-07-13T02:45:51;27.50;47.00
12874;DHT22;6505;51.114;13.128;2023-07-13T02:48:20;27.50;47.20
12874;DHT22;6505;51.114;13.128;2023-07-13T02:50:50;27.40;47.10
12874;DHT22;6505;51.114;13.128;2023-07-13T02:53:20;27.40;47.10
12874;DHT22;6505;51.114;13.128;2023-07-13T02:55:51;27.40;47.10
12874;DHT22;6505;51.114;13.128;2023-07-13T02:58:21;27.40;46.80
12874;DHT22;6505;51.114;13.128;2023-07-13T03:00:50;27.30;46.60
12874;DHT22;6505;51.114;13.128;2023-07-13T03:03:19;27.30;46.70
12874;DHT22;6505;51.114;13.128;2023-07-13T03:05:58;27.30;46.80
12874;DHT22;6505;51.114;13.128;2023-07-13T03:08:36;27.30;47.00
12874;DHT22;6505;51.114;13.128;2023-07-13T03:11:08;27.20;47.50
12874;DHT22;6505;51.114;13.128;2023-07-13T03:13:41;27.30;46.80
12874;DHT22;6505;51.114;13.128;2023-07-13T03:16:12;27.20;46.90
12874;DHT22;6505;51.114;13.128;2023-07-13T03:18:48;27.20;47.00
12874;DHT22;6505;51.114;13.128;2023-07-13T03:21:17;27.10;47.10
12874;DHT22;6505;51.114;13.128;2023-07-13T03:23:49;27.10;47.80
12874;DHT22;6505;51.114;13.128;2023-07-13T03:26:20;27.10;47.20
12874;DHT22;6505;51.114;13.128;2023-07-13T03:28:50;27.10;47.20
12874;DHT22;6505;51.114;13.128;2023-07-13T03:31:25;27.10;47.30
12874;DHT22;6505;51.114;13.128;2023-07-13T03:33:57;27.00;47.40
12874;DHT22;6505;51.114;13.128;2023-07-13T03:36:31;27.00;47.30
12874;DHT22;6505;51.114;13.128;2023-07-13T03:39:08;27.00;47.30
12874;DHT22;6505;51.114;13.128;2023-07-13T03:41:47;27.00;47.20
12874;DHT22;6505;51.114;13.128;2023-07-13T03:44:18;27.00;47.40
12874;DHT22;6505;51.114;13.128;2023-07-13T03:46:53;26.90;47.30
12874;DHT22;6505;51.114;13.128;2023-07-13T03:49:24;26.90;47.60
12874;DHT22;6505;51.114;13.128;2023-07-13T03:51:53;26.90;47.70
12874;DHT22;6505;51.114;13.128;2023-07-13T03:54:26;26.80;47.80
12874;DHT22;6505;51.114;13.128;2023-07-13T03:56:55;26.80;47.80
12874;DHT22;6505;51.114;13.128;2023-07-13T03:59:25;26.80;47.90
12874;DHT22;6505;51.114;13.128;2023-07-13T04:01:55;26.80;47.90
12874;DHT22;6505;51.114;13.128;2023-07-13T04:04:24;26.80;48.20
12874;DHT22;6505;51.114;13.128;2023-07-13T04:06:54;26.80;48.20
12874;DHT22;6505;51.114;13.128;2023-07-13T04:09:26;26.70;48.30
12874;DHT22;6505;51.114;13.128;2023-07-13T04:11:56;26.70;48.30
12874;DHT22;6505;51.114;13.128;2023-07-13T04:14:27;26.70;48.20
12874;DHT22;6505;51.114;13.128;2023-07-13T04:16:57;26.70;48.40
12874;DHT22;6505;51.114;13.128;2023-07-13T04:19:27;26.70;48.40
12874;DHT22;6505;51.114;13.128;2023-07-13T04:21:57;26.70;48.50
12874;DHT22;6505;51.114;13.128;2023-07-13T04:24:28;26.70;49.10
12874;DHT22;6505;51.114;13.128;2023-07-13T04:26:58;26.70;48.50
12874;DHT22;6505;51.114;13.128;2023-07-13T04:29:29;26.70;48.60
12874;DHT22;6505;51.114;13.128;2023-07-13T04:32:00;26.70;49.30
12874;DHT22;6505;51.114;13.128;2023-07-13T04:34:31;26.70;48.80
12874;DHT22;6505;51.114;13.128;2023-07-13T04:37:02;26.70;48.90
12874;DHT22;6505;51.114;13.128;2023-07-13T04:39:35;26.70;49.10
12874;DHT22;6505;51.114;13.128;2023-07-13T04:42:06;26.70;49.30
12874;DHT22;6505;51.114;13.128;2023-07-13T04:44:38;26.70;49.10
12874;DHT22;6505;51.114;13.128;2023-07-13T04:47:08;26.70;48.80
12874;DHT22;6505;51.114;13.128;2023-07-13T04:49:38;26.60;49.30
12874;DHT22;6505;51.114;13.128;2023-07-13T04:52:12;26.70;49.30
12874;DHT22;6505;51.114;13.128;2023-07-13T04:54:50;26.60;49.70
12874;DHT22;6505;51.114;13.128;2023-07-13T04:57:25;26.70;49.80
12874;DHT22;6505;51.114;13.128;2023-07-13T05:00:00;26.60;49.70
12874;DHT22;6505;51.114;13.128;2023-07-13T05:02:37;26.60;49.80
12874;DHT22;6505;51.114;13.128;2023-07-13T05:05:11;26.60;49.70
12874;DHT22;6505;51.114;13.128;2023-07-13T05:07:42;26.60;49.80
12874;DHT22;6505;51.114;13.128;2023-07-13T05:10:18;26.70;50.00
12874;DHT22;6505;51.114;13.128;2023-07-13T05:12:52;26.70;50.20
12874;DHT22;6505;51.114;13.128;2023-07-13T05:15:26;26.70;49.90
12874;DHT22;6505;51.114;13.128;2023-07-13T05:17:58;26.60;50.00
12874;DHT22;6505;51.114;13.128;2023-07-13T05:20:35;26.70;50.20
12874;DHT22;6505;51.114;13.128;2023-07-13T05:23:08;26.70;50.10
12874;DHT22;6505;51.114;13.128;2023-07-13T05:25:42;26.70;50.30
12874;DHT22;6505;51.114;13.128;2023-07-13T05:28:13;26.70;50.60
12874;DHT22;6505;51.114;13.128;2023-07-13T05:30:47;26.70;50.50
12874;DHT22;6505;51.114;13.128;2023-07-13T05:33:19;26.70;50.60
12874;DHT22;6505;51.114;13.128;2023-07-13T05:35:50;26.70;50.70
12874;DHT22;6505;51.114;13.128;2023-07-13T05:38:23;26.70;50.70
12874;DHT22;6505;51.114;13.128;2023-07-13T05:40:57;26.80;50.70
12874;DHT22;6505;51.114;13.128;2023-07-13T05:43:32;26.80;51.00
12874;DHT22;6505;51.114;13.128;2023-07-13T05:46:06;26.80;51.00
12874;DHT22;6505;51.114;13.128;2023-07-13T05:48:37;26.80;51.30
12874;DHT22;6505;51.114;13.128;2023-07-13T05:51:08;26.80;51.30
12874;DHT22;6505;51.114;13.128;2023-07-13T05:53:42;26.90;51.40
12874;DHT22;6505;51.114;13.128;2023-07-13T05:56:14;26.90;51.40
12874;DHT22;6505;51.114;13.128;2023-07-13T05:58:47;26.90;50.60
12874;DHT22;6505;51.114;13.128;2023-07-13T06:01:17;27.00;50.00
12874;DHT22;6505;51.114;13.128;2023-07-13T06:03:52;27.00;50.00
12874;DHT22;6505;51.114;13.128;2023-07-13T06:06:24;27.00;49.70
12874;DHT22;6505;51.114;13.128;2023-07-13T06:08:59;27.10;49.60
12874;DHT22;6505;51.114;13.128;2023-07-13T06:11:35;27.10;49.60
12874;DHT22;6505;51.114;13.128;2023-07-13T06:14:09;27.20;49.70
12874;DHT22;6505;51.114;13.128;2023-07-13T06:16:43;27.20;49.10
12874;DHT22;6505;51.114;13.128;2023-07-13T06:19:16;27.30;49.40
12874;DHT22;6505;51.114;13.128;2023-07-13T06:21:47;27.30;49.40
12874;DHT22;6505;51.114;13.128;2023-07-13T06:24:19;27.40;49.40
12874;DHT22;6505;51.114;13.128;2023-07-13T06:26:53;27.40;49.10
12874;DHT22;6505;51.114;13.128;2023-07-13T06:29:23;27.40;48.70
12874;DHT22;6505;51.114;13.128;2023-07-13T06:31:56;27.50;48.10
12874;DHT22;6505;51.114;13.128;2023-07-13T06:34:27;27.60;47.90
12874;DHT22;6505;51.114;13.128;2023-07-13T06:36:59;27.60;47.60
12874;DHT22;6505;51.114;13.128;2023-07-13T06:39:32;27.70;47.30
12874;DHT22;6505;51.114;13.128;2023-07-13T06:42:07;27.80;46.80
12874;DHT22;6505;51.114;13.128;2023-07-13T06:44:42;27.80;46.50
12874;DHT22;6505;51.114;13.128;2023-07-13T06:47:14;27.80;46.50
12874;DHT22;6505;51.114;13.128;2023-07-13T06:49:47;27.90;46.50
12874;DHT22;6505;51.114;13.128;2023-07-13T06:52:19;27.90;46.40
12874;DHT22;6505;51.114;13.128;2023-07-13T06:54:49;27.90;46.10
12874;DHT22;6505;51.114;13.128;2023-07-13T06:57:23;28.00;45.70
12874;DHT22;6505;51.114;13.128;2023-07-13T06:59:54;28.00;45.90
12874;DHT22;6505;51.114;13.128;2023-07-13T07:02:27;28.00;45.60
12874;DHT22;6505;51.114;13.128;2023-07-13T07:04:57;28.00;45.60
12874;DHT22;6505;51.114;13.128;2023-07-13T07:07:29;28.10;45.60
12874;DHT22;6505;51.114;13.128;2023-07-13T07:10:00;28.10;45.70
12874;DHT22;6505;51.114;13.128;2023-07-13T07:12:35;28.10;45.70
12874;DHT22;6505;51.114;13.128;2023-07-13T07:15:07;28.10;45.60
12874;DHT22;6505;51.114;13.128;2023-07-13T07:17:39;28.10;45.60
12874;DHT22;6505;51.114;13.128;2023-07-13T07:20:12;28.20;45.70
12874;DHT22;6505;51.114;13.128;2023-07-13T07:22:43;28.20;45.10
12874;DHT22;6505;51.114;13.128;2023-07-13T07:25:16;28.20;45.20
12874;DHT22;6505;51.114;13.128;2023-07-13T07:27:49;28.20;45.20
12874;DHT22;6505;51.114;13.128;2023-07-13T07:30:25;28.20;45.20
12874;DHT22;6505;51.114;13.128;2023-07-13T07:33:13;28.20;45.30
12874;DHT22;6505;51.114;13.128;2023-07-13T07:35:47;28.30;45.30
12874;DHT22;6505;51.114;13.128;2023-07-13T07:38:23;28.30;45.60
12874;DHT22;6505;51.114;13.128;2023-07-13T07:40:58;28.30;45.20
12874;DHT22;6505;51.114;13.128;2023-07-13T07:43:35;28.40;45.20
12874;DHT22;6505;51.114;13.128;2023-07-13T07:46:05;28.50;45.50
12874;DHT22;6505;51.114;13.128;2023-07-13T07:48:38;28.50;45.40
12874;DHT22;6505;51.114;13.128;2023-07-13T07:51:10;28.60;45.50
12874;DHT22;6505;51.114;13.128;2023-07-13T07:53:42;28.60;45.40
12874;DHT22;6505;51.114;13.128;2023-07-13T07:56:13;28.70;45.40
12874;DHT22;6505;51.114;13.128;2023-07-13T07:58:50;28.80;45.70
12874;DHT22;6505;51.114;13.128;2023-07-13T08:01:26;28.80;45.50
12874;DHT22;6505;51.114;13.128;2023-07-13T08:03:59;28.90;45.20
12874;DHT22;6505;51.114;13.128;2023-07-13T08:06:35;29.00;45.30
12874;DHT22;6505;51.114;13.128;2023-07-13T08:09:13;29.10;45.20
12874;DHT22;6505;51.114;13.128;2023-07-13T08:11:48;29.20;44.70
12874;DHT22;6505;51.114;13.128;2023-07-13T08:14:34;29.30;44.60
12874;DHT22;6505;51.114;13.128;2023-07-13T08:17:21;29.40;43.90
12874;DHT22;6505;51.114;13.128;2023-07-13T08:19:56;29.40;43.60
12874;DHT22;6505;51.114;13.128;2023-07-13T08:22:28;29.60;43.30
12874;DHT22;6505;51.114;13.128;2023-07-13T08:25:01;29.70;43.20
12874;DHT22;6505;51.114;13.128;2023-07-13T08:27:34;29.70;42.60
12874;DHT22;6505;51.114;13.128;2023-07-13T08:30:08;29.80;42.50
12874;DHT22;6505;51.114;13.128;2023-07-13T08:32:41;29.80;42.20
12874;DHT22;6505;51.114;13.128;2023-07-13T08:35:13;29.80;42.30
12874;DHT22;6505;51.114;13.128;2023-07-13T08:37:48;29.90;42.20
12874;DHT22;6505;51.114;13.128;2023-07-13T08:40:24;30.00;42.20
12874;DHT22;6505;51.114;13.128;2023-07-13T08:43:00;30.00;42.40
12874;DHT22;6505;51.114;13.128;2023-07-13T08:45:41;30.10;41.80
12874;DHT22;6505;51.114;13.128;2023-07-13T08:48:26;30.30;41.80
12874;DHT22;6505;51.114;13.128;2023-07-13T08:51:08;30.40;41.80
12874;DHT22;6505;51.114;13.128;2023-07-13T08:53:51;30.60;41.20
12874;DHT22;6505;51.114;13.128;2023-07-13T08:56:27;30.70;40.70
12874;DHT22;6505;51.114;13.128;2023-07-13T08:59:06;30.90;40.50
12874;DHT22;6505;51.114;13.128;2023-07-13T09:01:58;31.00;39.80
12874;DHT22;6505;51.114;13.128;2023-07-13T09:04:58;31.10;39.70
12874;DHT22;6505;51.114;13.128;2023-07-13T09:07:41;31.30;39.10
12874;DHT22;6505;51.114;13.128;2023-07-13T09:10:23;31.40;38.90
12874;DHT22;6505;51.114;13.128;2023-07-13T09:13:03;31.50;38.40
12874;DHT22;6505;51.114;13.128;2023-07-13T09:15:44;31.70;38.70
12874;DHT22;6505;51.114;13.128;2023-07-13T09:18:21;31.80;38.00
12874;DHT22;6505;51.114;13.128;2023-07-13T09:20:57;31.90;37.70
12874;DHT22;6505;51.114;13.128;2023-07-13T09:23:29;32.00;37.30
12874;DHT22;6505;51.114;13.128;2023-07-13T09:26:05;32.00;37.00
12874;DHT22;6505;51.114;13.128;2023-07-13T09:28:40;32.10;36.80
12874;DHT22;6505;51.114;13.128;2023-07-13T09:31:14;32.10;37.30
12874;DHT22;6505;51.114;13.128;2023-07-13T09:33:46;32.10;37.00
12874;DHT22;6505;51.114;13.128;2023-07-13T09:36:19;32.10;37.10
12874;DHT22;6505;51.114;13.128;2023-07-13T09:38:59;32.10;36.30
12874;DHT22;6505;51.114;13.128;2023-07-13T09:41:39;32.10;36.30
12874;DHT22;6505;51.114;13.128;2023-07-13T09:44:28;32.10;36.00
12874;DHT22;6505;51.114;13.128;2023-07-13T09:47:02;32.00;35.90
12874;DHT22;6505;51.114;13.128;2023-07-13T09:49:37;32.00;35.80
12874;DHT22;6505;51.114;13.128;2023-07-13T09:52:12;31.90;35.80
12874;DHT22;6505;51.114;13.128;2023-07-13T09:54:49;31.80;36.20
12874;DHT22;6505;51.114;13.128;2023-07-13T09:57:28;31.80;36.00
12874;DHT22;6505;51.114;13.128;2023-07-13T10:00:22;31.80;36.10
12874;DHT22;6505;51.114;13.128;2023-07-13T10:03:00;31.70;36.10
12874;DHT22;6505;51.114;13.128;2023-07-13T10:05:42;31.70;36.50
12874;DHT22;6505;51.114;13.128;2023-07-13T10:08:20;31.60;36.60
12874;DHT22;6505;51.114;13.128;2023-07-13T10:11:00;31.60;36.30
12874;DHT22;6505;51.114;13.128;2023-07-13T10:13:35;31.50;36.40
12874;DHT22;6505;51.114;13.128;2023-07-13T10:16:14;31.50;36.30
12874;DHT22;6505;51.114;13.128;2023-07-13T10:18:50;31.50;36.30
12874;DHT22;6505;51.114;13.128;2023-07-13T10:21:32;31.40;36.00
12874;DHT22;6505;51.114;13.128;2023-07-13T10:24:17;31.40;35.80
12874;DHT22;6505;51.114;13.128;2023-07-13T10:26:55;31.40;36.00
12874;DHT22;6505;51.114;13.128;2023-07-13T10:29:37;31.40;35.90
12874;DHT22;6505;51.114;13.128;2023-07-13T10:32:13;31.30;35.80
12874;DHT22;6505;51.114;13.128;2023-07-13T10:34:47;31.30;35.60
12874;DHT22;6505;51.114;13.128;2023-07-13T10:37:24;31.30;35.80
12874;DHT22;6505;51.114;13.128;2023-07-13T10:39:59;31.30;35.40
12874;DHT22;6505;51.114;13.128;2023-07-13T10:42:37;31.20;35.60
12874;DHT22;6505;51.114;13.128;2023-07-13T10:45:14;31.20;35.50
12874;DHT22;6505;51.114;13.128;2023-07-13T10:47:49;31.10;35.90
12874;DHT22;6505;51.114;13.128;2023-07-13T10:50:26;31.10;35.80
12874;DHT22;6505;51.114;13.128;2023-07-13T10:53:17;31.10;36.10
12874;DHT22;6505;51.114;13.128;2023-07-13T10:56:01;31.10;36.20
12874;DHT22;6505;51.114;13.128;2023-07-13T10:58:36;31.10;36.10
12874;DHT22;6505;51.114;13.128;2023-07-13T11:01:14;31.10;36.20
12874;DHT22;6505;51.114;13.128;2023-07-13T11:03:49;31.00;35.70
12874;DHT22;6505;51.114;13.128;2023-07-13T11:06:34;31.00;35.30
12874;DHT22;6505;51.114;13.128;2023-07-13T11:09:36;31.00;35.30
12874;DHT22;6505;51.114;13.128;2023-07-13T11:12:25;31.00;35.60
12874;DHT22;6505;51.114;13.128;2023-07-13T11:15:05;30.90;35.20
12874;DHT22;6505;51.114;13.128;2023-07-13T11:17:49;30.90;34.90
12874;DHT22;6505;51.114;13.128;2023-07-13T11:20:38;30.90;34.70
12874;DHT22;6505;51.114;13.128;2023-07-13T11:23:20;30.90;34.30
12874;DHT22;6505;51.114;13.128;2023-07-13T11:26:03;30.80;34.30
12874;DHT22;6505;51.114;13.128;2023-07-13T11:28:53;30.80;34.20
12874;DHT22;6505;51.114;13.128;2023-07-13T11:31:24;30.80;34.60
12874;DHT22;6505;51.114;13.128;2023-07-13T11:33:58;30.80;34.60
12874;DHT22;6505;51.114;13.128;2023-07-13T11:36:37;30.70;34.40
12874;DHT22;6505;51.114;13.128;2023-07-13T11:39:18;30.70;34.60
12874;DHT22;6505;51.114;13.128;2023-07-13T11:41:53;30.70;34.50
12874;DHT22;6505;51.114;13.128;2023-07-13T11:44:29;30.70;34.90
12874;DHT22;6505;51.114;13.128;2023-07-13T11:47:08;30.70;34.50
12874;DHT22;6505;51.114;13.128;2023-07-13T11:49:43;30.70;34.60
12874;DHT22;6505;51.114;13.128;2023-07-13T11:52:17;30.70;34.60
12874;DHT22;6505;51.114;13.128;2023-07-13T11:54:50;30.70;34.60
12874;DHT22;6505;51.114;13.128;2023-07-13T11:57:27;30.70;34.60
12874;DHT22;6505;51.114;13.128;2023-07-13T12:00:03;30.70;35.10
12874;DHT22;6505;51.114;13.128;2023-07-13T12:02:42;30.70;34.60
12874;DHT22;6505;51.114;13.128;2023-07-13T12:05:17;30.60;34.60
12874;DHT22;6505;51.114;13.128;2023-07-13T12:07:47;30.70;34.60
12874;DHT22;6505;51.114;13.128;2023-07-13T12:10:20;30.70;34.90
12874;DHT22;6505;51.114;13.128;2023-07-13T12:12:56;30.70;34.90
12874;DHT22;6505;51.114;13.128;2023-07-13T12:15:34;30.70;34.20
12874;DHT22;6505;51.114;13.128;2023-07-13T12:18:11;30.70;34.50
12874;DHT22;6505;51.114;13.128;2023-07-13T12:20:42;30.70;34.40
12874;DHT22;6505;51.114;13.128;2023-07-13T12:23:21;30.70;34.40
12874;DHT22;6505;51.114;13.128;2023-07-13T12:25:52;30.70;34.10
12874;DHT22;6505;51.114;13.128;2023-07-13T12:28:29;30.70;34.10
12874;DHT22;6505;51.114;13.128;2023-07-13T12:31:00;30.60;34.40
12874;DHT22;6505;51.114;13.128;2023-07-13T12:33:32;30.70;34.60
12874;DHT22;6505;51.114;13.128;2023-07-13T12:36:02;30.60;34.50
12874;DHT22;6505;51.114;13.128;2023-07-13T12:38:32;30.60;34.70
12874;DHT22;6505;51.114;13.128;2023-07-13T12:41:01;30.60;34.70
12874;DHT22;6505;51.114;13.128;2023-07-13T12:43:35;30.60;35.20
12874;DHT22;6505;51.114;13.128;2023-07-13T12:46:16;30.60;35.10
12874;DHT22;6505;51.114;13.128;2023-07-13T12:48:49;30.60;34.90
12874;DHT22;6505;51.114;13.128;2023-07-13T12:51:34;30.60;34.70
12874;DHT22;6505;51.114;13.128;2023-07-13T12:54:15;30.60;35.00
12874;DHT22;6505;51.114;13.128;2023-07-13T12:56:45;30.60;34.50
12874;DHT22;6505;51.114;13.128;2023-07-13T12:59:22;30.60;34.60
12874;DHT22;6505;51.114;13.128;2023-07-13T13:01:53;30.60;34.30
12874;DHT22;6505;51.114;13.128;2023-07-13T13:04:22;30.60;34.50
12874;DHT22;6505;51.114;13.128;2023-07-13T13:07:01;30.60;34.70
12874;DHT22;6505;51.114;13.128;2023-07-13T13:09:31;30.50;35.00
12874;DHT22;6505;51.114;13.128;2023-07-13T13:12:00;30.60;34.70
12874;DHT22;6505;51.114;13.128;2023-07-13T13:14:30;30.60;34.30
12874;DHT22;6505;51.114;13.128;2023-07-13T13:16:58;30.50;34.20
12874;DHT22;6505;51.114;13.128;2023-07-13T13:19:28;30.50;33.90
12874;DHT22;6505;51.114;13.128;2023-07-13T13:21:57;30.50;33.60
12874;DHT22;6505;51.114;13.128;2023-07-13T13:24:27;30.50;33.70
12874;DHT22;6505;51.114;13.128;2023-07-13T13:26:56;30.50;33.60
12874;DHT22;6505;51.114;13.128;2023-07-13T13:29:25;30.50;33.40
12874;DHT22;6505;51.114;13.128;2023-07-13T13:31:55;30.50;33.40
12874;DHT22;6505;51.114;13.128;2023-07-13T13:34:24;30.50;33.50
12874;DHT22;6505;51.114;13.128;2023-07-13T13:36:54;30.50;33.60
12874;DHT22;6505;51.114;13.128;2023-07-13T13:39:33;30.50;33.70
12874;DHT22;6505;51.114;13.128;2023-07-13T13:42:04;30.60;34.10
12874;DHT22;6505;51.114;13.128;2023-07-13T13:44:32;30.50;34.20
12874;DHT22;6505;51.114;13.128;2023-07-13T13:47:02;30.50;33.80
12874;DHT22;6505;51.114;13.128;2023-07-13T13:49:31;30.50;33.70
12874;DHT22;6505;51.114;13.128;2023-07-13T13:51:59;30.50;34.20
12874;DHT22;6505;51.114;13.128;2023-07-13T13:54:27;30.50;33.90
12874;DHT22;6505;51.114;13.128;2023-07-13T13:56:55;30.50;33.90
12874;DHT22;6505;51.114;13.128;2023-07-13T13:59:26;30.50;33.30
12874;DHT22;6505;51.114;13.128;2023-07-13T14:01:54;30.50;33.20
12874;DHT22;6505;51.114;13.128;2023-07-13T14:04:28;30.50;32.60
12874;DHT22;6505;51.114;13.128;2023-07-13T14:06:56;30.50;32.70
12874;DHT22;6505;51.114;13.128;2023-07-13T14:09:24;30.50;32.70
12874;DHT22;6505;51.114;13.128;2023-07-13T14:11:52;30.50;32.80
12874;DHT22;6505;51.114;13.128;2023-07-13T14:14:22;30.40;32.60
12874;DHT22;6505;51.114;13.128;2023-07-13T14:16:52;30.40;32.40
12874;DHT22;6505;51.114;13.128;2023-07-13T14:19:23;30.40;31.90
12874;DHT22;6505;51.114;13.128;2023-07-13T14:21:53;30.40;31.80
12874;DHT22;6505;51.114;13.128;2023-07-13T14:24:21;30.40;31.70
12874;DHT22;6505;51.114;13.128;2023-07-13T14:26:49;30.40;32.00
12874;DHT22;6505;51.114;13.128;2023-07-13T14:29:18;30.40;31.20
12874;DHT22;6505;51.114;13.128;2023-07-13T14:31:50;30.40;31.30
12874;DHT22;6505;51.114;13.128;2023-07-13T14:34:19;30.40;31.00
12874;DHT22;6505;51.114;13.128;2023-07-13T14:36:48;30.40;30.80
12874;DHT22;6505;51.114;13.128;2023-07-13T14:39:22;30.40;30.80
12874;DHT22;6505;51.114;13.128;2023-07-13T14:41:53;30.40;31.10
12874;DHT22;6505;51.114;13.128;2023-07-13T14:44:25;30.40;31.30
12874;DHT22;6505;51.114;13.128;2023-07-13T14:46:57;30.40;30.80
12874;DHT22;6505;51.114;13.128;2023-07-13T14:49:29;30.40;30.60
12874;DHT22;6505;51.114;13.128;2023-07-13T14:52:01;30.40;30.80
12874;DHT22;6505;51.114;13.128;2023-07-13T14:54:38;30.40;30.70
12874;DHT22;6505;51.114;13.128;2023-07-13T14:57:10;30.40;30.80
12874;DHT22;6505;51.114;13.128;2023-07-13T14:59:39;30.40;30.90
12874;DHT22;6505;51.114;13.128;2023-07-13T15:02:16;30.40;30.80
12874;DHT22;6505;51.114;13.128;2023-07-13T15:04:46;30.30;30.60
12874;DHT22;6505;51.114;13.128;2023-07-13T15:07:14;30.30;30.30
12874;DHT22;6505;51.114;13.128;2023-07-13T15:09:46;30.40;30.20
12874;DHT22;6505;51.114;13.128;2023-07-13T15:12:14;30.40;29.90
12874;DHT22;6505;51.114;13.128;2023-07-13T15:14:43;30.30;30.40
12874;DHT22;6505;51.114;13.128;2023-07-13T15:17:24;30.30;30.10
12874;DHT22;6505;51.114;13.128;2023-07-13T15:19:59;30.30;30.40
12874;DHT22;6505;51.114;13.128;2023-07-13T15:22:27;30.30;30.20
12874;DHT22;6505;51.114;13.128;2023-07-13T15:24:57;30.30;30.20
12874;DHT22;6505;51.114;13.128;2023-07-13T15:27:30;30.30;30.10
12874;DHT22;6505;51.114;13.128;2023-07-13T15:29:58;30.30;30.10
12874;DHT22;6505;51.114;13.128;2023-07-13T15:32:26;30.30;30.10
12874;DHT22;6505;51.114;13.128;2023-07-13T15:34:54;30.30;30.30
12874;DHT22;6505;51.114;13.128;2023-07-13T15:37:22;30.30;30.30
12874;DHT22;6505;51.114;13.128;2023-07-13T15:39:50;30.30;30.10
12874;DHT22;6505;51.114;13.128;2023-07-13T15:42:20;30.30;30.30
12874;DHT22;6505;51.114;13.128;2023-07-13T15:44:50;30.30;30.20
12874;DHT22;6505;51.114;13.128;2023-07-13T15:47:18;30.30;30.30
12874;DHT22;6505;51.114;13.128;2023-07-13T15:49:47;30.30;29.80
12874;DHT22;6505;51.114;13.128;2023-07-13T15:52:20;30.30;29.90
12874;DHT22;6505;51.114;13.128;2023-07-13T15:54:51;30.30;30.10
12874;DHT22;6505;51.114;13.128;2023-07-13T15:57:21;30.20;30.00
12874;DHT22;6505;51.114;13.128;2023-07-13T15:59:49;30.30;30.00
12874;DHT22;6505;51.114;13.128;2023-07-13T16:02:20;30.20;30.10
12874;DHT22;6505;51.114;13.128;2023-07-13T16:04:48;30.20;30.00
12874;DHT22;6505;51.114;13.128;2023-07-13T16:07:16;30.20;30.20
12874;DHT22;6505;51.114;13.128;2023-07-13T16:09:46;30.20;30.40